sensor_id;sensor_type;location;lat;lon;timestamp;temperature;humidity
47600;DHT22;33323;52.124;6.018;2023-11-22T00:00:18;2.70;99.90
47600;DHT22;33323;52.124;6.018;2023-11-22T00:02:47;2.60;99.90
47600;DHT22;33323;52.124;6.018;2023-11-22T00:05:15;2.60;99.90
47600;DHT22;33323;52.124;6.018;2023-11-22T00:07:42;2.60;99.90
47600;DHT22;33323;52.124;6.018;2023-11-22T00:10:09;2.60;99.90
47600;DHT22;33323;52.124;6.018;2023-11-22T00:12:36;2.50;99.90
47600;DHT22;33323;52.124;6.018;2023-11-22T00:15:05;2.50;99.90
47600;DHT22;33323;52.124;6.018;2023-11-22T00:17:34;2.40;99.90
47600;DHT22;33323;52.124;6.018;2023-11-22T00:20:02;2.50;99.90
47600;DHT22;33323;52.124;6.018;2023-11-22T00:22:32;2.40;99.90
47600;DHT22;33323;52.124;6.018;2023-11-22T00:25:00;2.40;99.90
47600;DHT22;33323;52.124;6.018;2023-11-22T00:27:29;2.40;99.90
47600;DHT22;33323;52.124;6.018;2023-11-22T00:29:57;2.40;99.90
47600;DHT22;33323;52.124;6.018;2023-11-22T00:32:24;2.40;99.90
47600;DHT22;33323;52.124;6.018;2023-11-22T00:34:54;2.40;99.90
47600;DHT22;33323;52.124;6.018;2023-11-22T00:37:21;2.30;99.90
47600;DHT22;33323;52.124;6.018;2023-11-22T00:39:49;2.30;99.90
47600;DHT22;33323;52.124;6.018;2023-11-22T00:42:15;2.30;99.90
47600;DHT22;33323;52.124;6.018;2023-11-22T00:44:46;2.30;99.90
47600;DHT22;33323;52.124;6.018;2023-11-22T00:47:14;2.20;99.90
47600;DHT22;33323;52.124;6.018;2023-11-22T00:49:43;2.20;99.90
47600;DHT22;33323;52.124;6.018;2023-11-22T00:52:10;2.10;99.90
47600;DHT22;33323;52.124;6.018;2023-11-22T00:54:37;2.10;99.90
47600;DHT22;33323;52.124;6.018;2023-11-22T00:57:04;2.10;99.90
47600;DHT22;33323;52.124;6.018;2023-11-22T00:59:33;2.10;99.90
47600;DHT22;33323;52.124;6.018;2023-11-22T01:02:00;2.10;99.90
47600;DHT22;33323;52.124;6.018;2023-11-22T01:04:31;2.10;99.90
47600;DHT22;33323;52.124;6.018;2023-11-22T01:07:00;2.00;99.90
47600;DHT22;33323;52.124;6.018;2023-11-22T01:09:28;2.00;99.90
47600;DHT22;33323;52.124;6.018;2023-11-22T01:11:55;1.90;99.90
47600;DHT22;33323;52.124;6.018;2023-11-22T01:14:22;1.80;99.90
47600;DHT22;33323;52.124;6.018;2023-11-22T01:16:50;1.80;99.90
47600;DHT22;33323;52.124;6.018;2023-11-22T01:19:17;1.80;99.90
47600;DHT22;33323;52.124;6.018;2023-11-22T01:21:44;1.80;99.90
47600;DHT22;33323;52.124;6.018;2023-11-22T01:24:11;1.70;99.90
47600;DHT22;33323;52.124;6.018;2023-11-22T01:26:38;1.70;99.90
47600;DHT22;33323;52.124;6.018;2023-11-22T01:29:05;1.70;99.90
47600;DHT22;33323;52.124;6.018;2023-11-22T01:31:32;1.70;99.90
47600;DHT22;33323;52.124;6.018;2023-11-22T01:33:59;1.60;99.90
47600;DHT22;33323;52.124;6.018;2023-11-22T01:36:27;1.60;99.90
47600;DHT22;33323;52.124;6.018;2023-11-22T01:38:54;1.60;99.90
47600;DHT22;33323;52.124;6.018;2023-11-22T01:41:22;1.60;99.90
47600;DHT22;33323;52.124;6.018;2023-11-22T01:43:49;1.60;99.90
47600;DHT22;33323;52.124;6.018;2023-11-22T01:46:24;1.60;99.90
47600;DHT22;33323;52.124;6.018;2023-11-22T01:48:52;1.60;99.90
47600;DHT22;33323;52.124;6.018;2023-11-22T01:51:21;1.60;99.90
47600;DHT22;33323;52.124;6.018;2023-11-22T01:53:53;1.50;99.90
47600;DHT22;33323;52.124;6.018;2023-11-22T01:56:24;1.40;99.90
47600;DHT22;33323;52.124;6.018;2023-11-22T01:58:54;1.50;99.90
47600;DHT22;33323;52.124;6.018;2023-11-22T02:01:22;1.40;99.90
47600;DHT22;33323;52.124;6.018;2023-11-22T02:03:49;1.40;99.90
47600;DHT22;33323;52.124;6.018;2023-11-22T02:06:16;1.30;99.90
47600;DHT22;33323;52.124;6.018;2023-11-22T02:08:43;1.40;99.90
47600;DHT22;33323;52.124;6.018;2023-11-22T02:11:11;1.40;99.90
47600;DHT22;33323;52.124;6.018;2023-11-22T02:13:38;1.30;99.90
47600;DHT22;33323;52.124;6.018;2023-11-22T02:16:05;1.30;99.90
47600;DHT22;33323;52.124;6.018;2023-11-22T02:18:32;1.30;99.90
47600;DHT22;33323;52.124;6.018;2023-11-22T02:21:00;1.30;99.90
47600;DHT22;33323;52.124;6.018;2023-11-22T02:23:27;1.30;99.90
47600;DHT22;33323;52.124;6.018;2023-11-22T02:25:55;1.20;99.90
47600;DHT22;33323;52.124;6.018;2023-11-22T02:28:22;1.20;99.90
47600;DHT22;33323;52.124;6.018;2023-11-22T02:30:50;1.10;99.90
47600;DHT22;33323;52.124;6.018;2023-11-22T02:33:18;1.00;99.90
47600;DHT22;33323;52.124;6.018;2023-11-22T02:35:45;1.00;99.90
47600;DHT22;33323;52.124;6.018;2023-11-22T02:38:12;1.00;99.90
47600;DHT22;33323;52.124;6.018;2023-11-22T02:40:39;1.00;99.90
47600;DHT22;33323;52.124;6.018;2023-11-22T02:43:06;1.00;99.90
47600;DHT22;33323;52.124;6.018;2023-11-22T02:45:36;0.90;99.90
47600;DHT22;33323;52.124;6.018;2023-11-22T02:48:04;0.90;99.90
47600;DHT22;33323;52.124;6.018;2023-11-22T02:50:36;0.90;99.90
47600;DHT22;33323;52.124;6.018;2023-11-22T02:53:06;0.90;99.90
47600;DHT22;33323;52.124;6.018;2023-11-22T02:55:34;0.90;99.90
47600;DHT22;33323;52.124;6.018;2023-11-22T02:58:01;0.90;99.90
47600;DHT22;33323;52.124;6.018;2023-11-22T03:00:29;1.00;99.90
47600;DHT22;33323;52.124;6.018;2023-11-22T03:02:56;1.00;99.90
47600;DHT22;33323;52.124;6.018;2023-11-22T03:05:23;1.00;99.90
47600;DHT22;33323;52.124;6.018;2023-11-22T03:07:51;1.00;99.90
47600;DHT22;33323;52.124;6.018;2023-11-22T03:10:18;0.90;99.90
47600;DHT22;33323;52.124;6.018;2023-11-22T03:12:45;0.80;99.90
47600;DHT22;33323;52.124;6.018;2023-11-22T03:15:12;0.70;99.90
47600;DHT22;33323;52.124;6.018;2023-11-22T03:17:39;0.70;99.90
47600;DHT22;33323;52.124;6.018;2023-11-22T03:20:07;0.70;99.90
47600;DHT22;33323;52.124;6.018;2023-11-22T03:22:38;0.70;99.90
47600;DHT22;33323;52.124;6.018;2023-11-22T03:25:06;0.70;99.90
47600;DHT22;33323;52.124;6.018;2023-11-22T03:27:37;0.70;99.90
47600;DHT22;33323;52.124;6.018;2023-11-22T03:30:05;0.60;99.90
47600;DHT22;33323;52.124;6.018;2023-11-22T03:32:35;0.60;99.90
47600;DHT22;33323;52.124;6.018;2023-11-22T03:35:07;0.60;99.90
47600;DHT22;33323;52.124;6.018;2023-11-22T03:37:36;0.60;99.90
47600;DHT22;33323;52.124;6.018;2023-11-22T03:40:04;0.60;99.90
47600;DHT22;33323;52.124;6.018;2023-11-22T03:42:32;0.60;99.90
47600;DHT22;33323;52.124;6.018;2023-11-22T03:44:59;0.50;99.90
47600;DHT22;33323;52.124;6.018;2023-11-22T03:47:26;0.50;99.90
47600;DHT22;33323;52.124;6.018;2023-11-22T03:49:54;0.50;99.90
47600;DHT22;33323;52.124;6.018;2023-11-22T03:52:21;0.50;99.90
47600;DHT22;33323;52.124;6.018;2023-11-22T03:54:48;0.50;99.90
47600;DHT22;33323;52.124;6.018;2023-11-22T03:57:15;0.50;99.90
47600;DHT22;33323;52.124;6.018;2023-11-22T03:59:42;0.50;99.90
47600;DHT22;33323;52.124;6.018;2023-11-22T04:02:10;0.50;99.90
47600;DHT22;33323;52.124;6.018;2023-11-22T04:04:37;0.50;99.90
47600;DHT22;33323;52.124;6.018;2023-11-22T04:07:07;0.50;99.90
47600;DHT22;33323;52.124;6.018;2023-11-22T04:09:34;0.50;99.90
47600;DHT22;33323;52.124;6.018;2023-11-22T04:12:01;0.50;99.90
47600;DHT22;33323;52.124;6.018;2023-11-22T04:14:28;0.50;99.90
47600;DHT22;33323;52.124;6.018;2023-11-22T04:16:56;0.50;99.90
47600;DHT22;33323;52.124;6.018;2023-11-22T04:19:23;0.50;99.90
47600;DHT22;33323;52.124;6.018;2023-11-22T04:21:51;0.50;99.90
47600;DHT22;33323;52.124;6.018;2023-11-22T04:24:18;0.40;99.90
47600;DHT22;33323;52.124;6.018;2023-11-22T04:26:45;0.40;99.90
47600;DHT22;33323;52.124;6.018;2023-11-22T04:29:14;0.40;99.90
47600;DHT22;33323;52.124;6.018;2023-11-22T04:31:43;0.30;99.90
47600;DHT22;33323;52.124;6.018;2023-11-22T04:34:10;0.30;99.90
47600;DHT22;33323;52.124;6.018;2023-11-22T04:36:38;0.30;99.90
47600;DHT22;33323;52.124;6.018;2023-11-22T04:39:06;0.30;99.90
47600;DHT22;33323;52.124;6.018;2023-11-22T04:41:34;0.30;99.90
47600;DHT22;33323;52.124;6.018;2023-11-22T04:44:02;0.30;99.90
47600;DHT22;33323;52.124;6.018;2023-11-22T04:46:29;0.20;99.90
47600;DHT22;33323;52.124;6.018;2023-11-22T04:48:56;0.20;99.90
47600;DHT22;33323;52.124;6.018;2023-11-22T04:51:24;0.20;99.90
47600;DHT22;33323;52.124;6.018;2023-11-22T04:53:51;0.20;99.90
47600;DHT22;33323;52.124;6.018;2023-11-22T04:56:18;0.10;99.90
47600;DHT22;33323;52.124;6.018;2023-11-22T04:58:45;0.10;99.90
47600;DHT22;33323;52.124;6.018;2023-11-22T05:01:12;0.00;99.90
47600;DHT22;33323;52.124;6.018;2023-11-22T05:03:43;0.00;99.90
47600;DHT22;33323;52.124;6.018;2023-11-22T05:06:10;0.00;99.90
47600;DHT22;33323;52.124;6.018;2023-11-22T05:08:37;0.00;99.90
47600;DHT22;33323;52.124;6.018;2023-11-22T05:11:05;-0.10;99.90
47600;DHT22;33323;52.124;6.018;2023-11-22T05:13:32;-0.10;99.90
47600;DHT22;33323;52.124;6.018;2023-11-22T05:15:59;-0.10;99.90
47600;DHT22;33323;52.124;6.018;2023-11-22T05:18:27;-0.10;99.90
47600;DHT22;33323;52.124;6.018;2023-11-22T05:20:54;-0.10;99.90
47600;DHT22;33323;52.124;6.018;2023-11-22T05:23:21;-0.10;99.90
47600;DHT22;33323;52.124;6.018;2023-11-22T05:26:10;-0.10;99.90
47600;DHT22;33323;52.124;6.018;2023-11-22T05:29:11;-0.10;99.90
47600;DHT22;33323;52.124;6.018;2023-11-22T05:31:38;0.00;99.90
47600;DHT22;33323;52.124;6.018;2023-11-22T05:34:05;-0.10;99.90
47600;DHT22;33323;52.124;6.018;2023-11-22T05:36:32;-0.10;99.90
47600;DHT22;33323;52.124;6.018;2023-11-22T05:38:59;-0.10;99.90
47600;DHT22;33323;52.124;6.018;2023-11-22T05:41:26;-0.10;99.90
47600;DHT22;33323;52.124;6.018;2023-11-22T05:43:53;-0.10;99.90
47600;DHT22;33323;52.124;6.018;2023-11-22T05:46:22;0.00;99.90
47600;DHT22;33323;52.124;6.018;2023-11-22T05:48:52;0.00;99.90
47600;DHT22;33323;52.124;6.018;2023-11-22T05:51:19;0.00;99.90
47600;DHT22;33323;52.124;6.018;2023-11-22T05:53:46;0.00;99.90
47600;DHT22;33323;52.124;6.018;2023-11-22T05:56:13;0.00;99.90
47600;DHT22;33323;52.124;6.018;2023-11-22T05:58:41;0.00;99.90
47600;DHT22;33323;52.124;6.018;2023-11-22T06:01:09;0.00;99.90
47600;DHT22;33323;52.124;6.018;2023-11-22T06:03:38;0.10;99.90
47600;DHT22;33323;52.124;6.018;2023-11-22T06:06:06;0.10;99.90
47600;DHT22;33323;52.124;6.018;2023-11-22T06:08:37;0.20;99.90
47600;DHT22;33323;52.124;6.018;2023-11-22T06:11:04;0.20;99.90
47600;DHT22;33323;52.124;6.018;2023-11-22T06:13:31;0.20;99.90
47600;DHT22;33323;52.124;6.018;2023-11-22T06:15:58;0.20;99.90
47600;DHT22;33323;52.124;6.018;2023-11-22T06:18:25;0.20;99.90
47600;DHT22;33323;52.124;6.018;2023-11-22T06:24:33;0.20;99.90
47600;DHT22;33323;52.124;6.018;2023-11-22T06:27:03;0.20;99.90
47600;DHT22;33323;52.124;6.018;2023-11-22T06:29:30;0.30;99.90
47600;DHT22;33323;52.124;6.018;2023-11-22T06:31:57;0.30;99.90
47600;DHT22;33323;52.124;6.018;2023-11-22T06:34:24;0.30;99.90
47600;DHT22;33323;52.124;6.018;2023-11-22T06:36:52;0.30;99.90
47600;DHT22;33323;52.124;6.018;2023-11-22T06:39:19;0.30;99.90
47600;DHT22;33323;52.124;6.018;2023-11-22T06:41:46;0.40;99.90
47600;DHT22;33323;52.124;6.018;2023-11-22T06:44:14;0.40;99.90
47600;DHT22;33323;52.124;6.018;2023-11-22T06:46:41;0.30;99.90
47600;DHT22;33323;52.124;6.018;2023-11-22T06:49:08;0.30;99.90
47600;DHT22;33323;52.124;6.018;2023-11-22T06:51:35;0.30;99.90
47600;DHT22;33323;52.124;6.018;2023-11-22T06:54:02;0.30;99.90
47600;DHT22;33323;52.124;6.018;2023-11-22T06:56:29;0.30;99.90
47600;DHT22;33323;52.124;6.018;2023-11-22T06:58:56;0.40;99.90
47600;DHT22;33323;52.124;6.018;2023-11-22T07:01:24;0.40;99.90
47600;DHT22;33323;52.124;6.018;2023-11-22T07:03:56;0.40;99.90
47600;DHT22;33323;52.124;6.018;2023-11-22T07:06:24;0.40;99.90
47600;DHT22;33323;52.124;6.018;2023-11-22T07:08:52;0.40;99.90
47600;DHT22;33323;52.124;6.018;2023-11-22T07:11:23;0.40;99.90
47600;DHT22;33323;52.124;6.018;2023-11-22T07:13:51;0.50;99.90
47600;DHT22;33323;52.124;6.018;2023-11-22T07:16:19;0.50;99.90
47600;DHT22;33323;52.124;6.018;2023-11-22T07:18:47;0.50;99.90
47600;DHT22;33323;52.124;6.018;2023-11-22T07:21:14;0.60;99.90
47600;DHT22;33323;52.124;6.018;2023-11-22T07:23:41;0.60;99.90
47600;DHT22;33323;52.124;6.018;2023-11-22T07:26:08;0.60;99.90
47600;DHT22;33323;52.124;6.018;2023-11-22T07:28:36;0.70;99.90
47600;DHT22;33323;52.124;6.018;2023-11-22T07:31:07;0.70;99.90
47600;DHT22;33323;52.124;6.018;2023-11-22T07:33:35;0.80;99.90
47600;DHT22;33323;52.124;6.018;2023-11-22T07:36:02;0.80;99.90
47600;DHT22;33323;52.124;6.018;2023-11-22T07:38:30;0.80;99.90
47600;DHT22;33323;52.124;6.018;2023-11-22T07:40:58;0.80;99.90
47600;DHT22;33323;52.124;6.018;2023-11-22T07:43:28;0.90;99.90
47600;DHT22;33323;52.124;6.018;2023-11-22T07:45:55;0.80;99.90
47600;DHT22;33323;52.124;6.018;2023-11-22T07:48:22;0.90;99.90
47600;DHT22;33323;52.124;6.018;2023-11-22T07:50:49;0.90;99.90
47600;DHT22;33323;52.124;6.018;2023-11-22T07:53:17;0.90;99.90
47600;DHT22;33323;52.124;6.018;2023-11-22T07:55:45;0.90;99.90
47600;DHT22;33323;52.124;6.018;2023-11-22T07:58:12;1.00;99.90
47600;DHT22;33323;52.124;6.018;2023-11-22T08:00:40;1.10;99.90
47600;DHT22;33323;52.124;6.018;2023-11-22T08:03:09;1.10;99.90
47600;DHT22;33323;52.124;6.018;2023-11-22T08:05:51;1.20;99.90
47600;DHT22;33323;52.124;6.018;2023-11-22T08:08:25;1.20;99.90
47600;DHT22;33323;52.124;6.018;2023-11-22T08:10:53;1.30;99.90
47600;DHT22;33323;52.124;6.018;2023-11-22T08:13:23;1.30;99.90
47600;DHT22;33323;52.124;6.018;2023-11-22T08:15:51;1.40;99.90
47600;DHT22;33323;52.124;6.018;2023-11-22T08:18:20;1.40;99.90
47600;DHT22;33323;52.124;6.018;2023-11-22T08:20:49;1.50;99.90
47600;DHT22;33323;52.124;6.018;2023-11-22T08:23:16;1.50;99.90
47600;DHT22;33323;52.124;6.018;2023-11-22T08:25:45;1.60;99.90
47600;DHT22;33323;52.124;6.018;2023-11-22T08:28:12;1.60;99.90
47600;DHT22;33323;52.124;6.018;2023-11-22T08:30:39;1.60;99.90
47600;DHT22;33323;52.124;6.018;2023-11-22T08:33:09;1.70;99.90
47600;DHT22;33323;52.124;6.018;2023-11-22T08:35:36;1.70;99.90
47600;DHT22;33323;52.124;6.018;2023-11-22T08:38:03;1.80;99.90
47600;DHT22;33323;52.124;6.018;2023-11-22T08:40:32;1.80;99.90
47600;DHT22;33323;52.124;6.018;2023-11-22T08:43:01;1.90;99.90
47600;DHT22;33323;52.124;6.018;2023-11-22T08:45:29;2.00;99.90
47600;DHT22;33323;52.124;6.018;2023-11-22T08:47:57;2.00;99.90
47600;DHT22;33323;52.124;6.018;2023-11-22T08:50:26;2.10;99.90
47600;DHT22;33323;52.124;6.018;2023-11-22T08:52:53;2.10;99.90
47600;DHT22;33323;52.124;6.018;2023-11-22T08:55:21;2.10;99.90
47600;DHT22;33323;52.124;6.018;2023-11-22T08:57:49;2.10;99.90
47600;DHT22;33323;52.124;6.018;2023-11-22T09:00:18;2.10;99.90
47600;DHT22;33323;52.124;6.018;2023-11-22T09:02:49;2.10;99.90
47600;DHT22;33323;52.124;6.018;2023-11-22T09:05:17;2.10;99.90
47600;DHT22;33323;52.124;6.018;2023-11-22T09:07:46;2.20;99.90
47600;DHT22;33323;52.124;6.018;2023-11-22T09:10:13;2.30;99.90
47600;DHT22;33323;52.124;6.018;2023-11-22T09:12:41;2.40;99.90
47600;DHT22;33323;52.124;6.018;2023-11-22T09:15:11;2.40;99.90
47600;DHT22;33323;52.124;6.018;2023-11-22T09:17:44;2.50;99.90
47600;DHT22;33323;52.124;6.018;2023-11-22T09:20:15;2.50;99.90
47600;DHT22;33323;52.124;6.018;2023-11-22T09:22:47;2.60;99.90
47600;DHT22;33323;52.124;6.018;2023-11-22T09:25:26;2.70;99.90
47600;DHT22;33323;52.124;6.018;2023-11-22T09:27:57;2.70;99.90
47600;DHT22;33323;52.124;6.018;2023-11-22T09:30:28;2.80;99.90
47600;DHT22;33323;52.124;6.018;2023-11-22T09:33:04;2.80;99.90
47600;DHT22;33323;52.124;6.018;2023-11-22T09:35:32;2.90;99.90
47600;DHT22;33323;52.124;6.018;2023-11-22T09:38:04;2.90;99.90
47600;DHT22;33323;52.124;6.018;2023-11-22T09:40:47;3.10;99.90
47600;DHT22;33323;52.124;6.018;2023-11-22T09:43:17;3.20;99.90
47600;DHT22;33323;52.124;6.018;2023-11-22T09:45:47;3.20;99.90
47600;DHT22;33323;52.124;6.018;2023-11-22T09:48:22;3.30;99.90
47600;DHT22;33323;52.124;6.018;2023-11-22T09:51:07;3.40;99.90
47600;DHT22;33323;52.124;6.018;2023-11-22T09:56:09;3.40;99.90
47600;DHT22;33323;52.124;6.018;2023-11-22T09:58:40;3.50;99.90
47600;DHT22;33323;52.124;6.018;2023-11-22T10:01:11;3.50;99.90
47600;DHT22;33323;52.124;6.018;2023-11-22T10:03:40;3.60;99.90
47600;DHT22;33323;52.124;6.018;2023-11-22T10:06:09;3.60;99.90
47600;DHT22;33323;52.124;6.018;2023-11-22T10:08:36;3.70;99.90
47600;DHT22;33323;52.124;6.018;2023-11-22T10:11:05;3.70;99.90
47600;DHT22;33323;52.124;6.018;2023-11-22T10:13:34;3.70;99.90
47600;DHT22;33323;52.124;6.018;2023-11-22T10:16:14;3.70;99.90
47600;DHT22;33323;52.124;6.018;2023-11-22T10:18:47;3.80;99.90
47600;DHT22;33323;52.124;6.018;2023-11-22T10:21:36;3.80;99.90
47600;DHT22;33323;52.124;6.018;2023-11-22T10:24:04;3.90;99.90
47600;DHT22;33323;52.124;6.018;2023-11-22T10:26:36;3.90;99.90
47600;DHT22;33323;52.124;6.018;2023-11-22T10:29:03;4.00;99.90
47600;DHT22;33323;52.124;6.018;2023-11-22T10:31:30;4.10;99.90
47600;DHT22;33323;52.124;6.018;2023-11-22T10:33:57;4.10;99.90
47600;DHT22;33323;52.124;6.018;2023-11-22T10:36:25;4.20;99.90
47600;DHT22;33323;52.124;6.018;2023-11-22T10:38:54;4.20;99.90
47600;DHT22;33323;52.124;6.018;2023-11-22T10:41:21;4.30;99.90
47600;DHT22;33323;52.124;6.018;2023-11-22T10:43:54;4.30;99.90
47600;DHT22;33323;52.124;6.018;2023-11-22T10:46:28;4.40;99.90
47600;DHT22;33323;52.124;6.018;2023-11-22T10:48:56;4.50;99.90
47600;DHT22;33323;52.124;6.018;2023-11-22T10:51:30;4.50;99.90
47600;DHT22;33323;52.124;6.018;2023-11-22T10:54:02;4.50;99.90
47600;DHT22;33323;52.124;6.018;2023-11-22T10:56:39;4.50;99.90
47600;DHT22;33323;52.124;6.018;2023-11-22T10:59:12;4.50;99.90
47600;DHT22;33323;52.124;6.018;2023-11-22T11:01:45;4.50;99.90
47600;DHT22;33323;52.124;6.018;2023-11-22T11:06:54;4.60;99.90
47600;DHT22;33323;52.124;6.018;2023-11-22T11:09:24;4.60;99.90
47600;DHT22;33323;52.124;6.018;2023-11-22T11:11:59;4.60;99.90
47600;DHT22;33323;52.124;6.018;2023-11-22T11:14:27;4.70;99.90
47600;DHT22;33323;52.124;6.018;2023-11-22T11:16:54;4.70;99.90
47600;DHT22;33323;52.124;6.018;2023-11-22T11:19:25;4.80;99.90
47600;DHT22;33323;52.124;6.018;2023-11-22T11:21:54;4.90;99.90
47600;DHT22;33323;52.124;6.018;2023-11-22T11:24:24;4.90;99.90
47600;DHT22;33323;52.124;6.018;2023-11-22T11:26:51;5.10;99.90
47600;DHT22;33323;52.124;6.018;2023-11-22T11:29:35;5.20;99.90
47600;DHT22;33323;52.124;6.018;2023-11-22T11:32:04;5.20;99.90
47600;DHT22;33323;52.124;6.018;2023-11-22T11:34:31;5.20;99.90
47600;DHT22;33323;52.124;6.018;2023-11-22T11:37:03;5.20;99.90
47600;DHT22;33323;52.124;6.018;2023-11-22T11:39:31;5.20;99.90
47600;DHT22;33323;52.124;6.018;2023-11-22T11:42:10;5.20;99.90
47600;DHT22;33323;52.124;6.018;2023-11-22T11:47:26;5.10;99.90
47600;DHT22;33323;52.124;6.018;2023-11-22T11:49:55;5.00;99.90
47600;DHT22;33323;52.124;6.018;2023-11-22T11:52:25;5.00;99.90
47600;DHT22;33323;52.124;6.018;2023-11-22T11:54:52;5.10;99.90
47600;DHT22;33323;52.124;6.018;2023-11-22T11:57:21;5.20;99.90
47600;DHT22;33323;52.124;6.018;2023-11-22T11:59:48;5.30;99.90
47600;DHT22;33323;52.124;6.018;2023-11-22T12:02:16;5.40;99.90
47600;DHT22;33323;52.124;6.018;2023-11-22T12:04:44;5.40;99.90
47600;DHT22;33323;52.124;6.018;2023-11-22T12:07:12;5.30;99.90
47600;DHT22;33323;52.124;6.018;2023-11-22T12:09:39;5.40;99.90
47600;DHT22;33323;52.124;6.018;2023-11-22T12:12:07;5.40;99.90
47600;DHT22;33323;52.124;6.018;2023-11-22T12:14:35;5.40;99.90
47600;DHT22;33323;52.124;6.018;2023-11-22T12:17:03;5.50;99.90
47600;DHT22;33323;52.124;6.018;2023-11-22T12:19:32;5.60;99.90
47600;DHT22;33323;52.124;6.018;2023-11-22T12:22:01;5.70;99.90
47600;DHT22;33323;52.124;6.018;2023-11-22T12:24:28;5.70;99.90
47600;DHT22;33323;52.124;6.018;2023-11-22T12:26:55;5.80;99.90
47600;DHT22;33323;52.124;6.018;2023-11-22T12:29:23;5.80;99.90
47600;DHT22;33323;52.124;6.018;2023-11-22T12:31:51;5.80;99.90
47600;DHT22;33323;52.124;6.018;2023-11-22T12:34:22;5.80;99.90
47600;DHT22;33323;52.124;6.018;2023-11-22T12:36:49;5.80;99.90
47600;DHT22;33323;52.124;6.018;2023-11-22T12:39:16;5.70;99.90
47600;DHT22;33323;52.124;6.018;2023-11-22T12:41:48;5.70;99.90
47600;DHT22;33323;52.124;6.018;2023-11-22T12:44:32;5.80;99.90
47600;DHT22;33323;52.124;6.018;2023-11-22T12:47:10;5.80;99.90
47600;DHT22;33323;52.124;6.018;2023-11-22T12:49:47;5.90;99.90
47600;DHT22;33323;52.124;6.018;2023-11-22T12:52:16;6.00;99.90
47600;DHT22;33323;52.124;6.018;2023-11-22T12:54:43;6.00;99.90
47600;DHT22;33323;52.124;6.018;2023-11-22T12:57:14;6.10;99.90
47600;DHT22;33323;52.124;6.018;2023-11-22T12:59:45;6.10;99.90
47600;DHT22;33323;52.124;6.018;2023-11-22T13:02:12;6.20;99.90
47600;DHT22;33323;52.124;6.018;2023-11-22T13:04:39;6.20;99.90
47600;DHT22;33323;52.124;6.018;2023-11-22T13:07:06;6.10;99.90
47600;DHT22;33323;52.124;6.018;2023-11-22T13:09:33;6.00;99.90
47600;DHT22;33323;52.124;6.018;2023-11-22T13:12:02;6.00;99.90
47600;DHT22;33323;52.124;6.018;2023-11-22T13:14:31;6.00;99.90
47600;DHT22;33323;52.124;6.018;2023-11-22T13:17:04;5.90;99.90
47600;DHT22;33323;52.124;6.018;2023-11-22T13:19:35;5.80;99.90
47600;DHT22;33323;52.124;6.018;2023-11-22T13:22:04;5.80;99.90
47600;DHT22;33323;52.124;6.018;2023-11-22T13:24:32;5.80;99.90
47600;DHT22;33323;52.124;6.018;2023-11-22T13:26:59;5.70;99.90
47600;DHT22;33323;52.124;6.018;2023-11-22T13:29:26;5.70;99.90
47600;DHT22;33323;52.124;6.018;2023-11-22T13:31:53;5.70;99.90
47600;DHT22;33323;52.124;6.018;2023-11-22T13:34:20;5.70;99.90
47600;DHT22;33323;52.124;6.018;2023-11-22T13:36:47;5.60;99.90
47600;DHT22;33323;52.124;6.018;2023-11-22T13:39:14;5.70;99.90
47600;DHT22;33323;52.124;6.018;2023-11-22T13:41:41;5.60;99.90
47600;DHT22;33323;52.124;6.018;2023-11-22T13:44:08;5.70;99.90
47600;DHT22;33323;52.124;6.018;2023-11-22T13:46:37;5.70;99.90
47600;DHT22;33323;52.124;6.018;2023-11-22T13:49:04;5.60;99.90
47600;DHT22;33323;52.124;6.018;2023-11-22T13:51:33;5.60;99.90
47600;DHT22;33323;52.124;6.018;2023-11-22T13:54:01;5.60;99.90
47600;DHT22;33323;52.124;6.018;2023-11-22T13:56:28;5.60;99.90
47600;DHT22;33323;52.124;6.018;2023-11-22T13:58:55;5.60;99.90
47600;DHT22;33323;52.124;6.018;2023-11-22T14:01:26;5.50;99.90
47600;DHT22;33323;52.124;6.018;2023-11-22T14:03:53;5.50;99.90
47600;DHT22;33323;52.124;6.018;2023-11-22T14:06:21;5.50;99.90
47600;DHT22;33323;52.124;6.018;2023-11-22T14:08:50;5.50;99.90
47600;DHT22;33323;52.124;6.018;2023-11-22T14:11:17;5.50;99.90
47600;DHT22;33323;52.124;6.018;2023-11-22T14:13:44;5.50;99.90
47600;DHT22;33323;52.124;6.018;2023-11-22T14:16:11;5.50;99.90
47600;DHT22;33323;52.124;6.018;2023-11-22T14:18:39;5.50;99.90
47600;DHT22;33323;52.124;6.018;2023-11-22T14:21:07;5.50;99.90
47600;DHT22;33323;52.124;6.018;2023-11-22T14:23:34;5.50;99.90
47600;DHT22;33323;52.124;6.018;2023-11-22T14:26:01;5.50;99.90
47600;DHT22;33323;52.124;6.018;2023-11-22T14:28:29;5.40;99.90
47600;DHT22;33323;52.124;6.018;2023-11-22T14:30:57;5.40;99.90
47600;DHT22;33323;52.124;6.018;2023-11-22T14:33:24;5.40;99.90
47600;DHT22;33323;52.124;6.018;2023-11-22T14:35:51;5.40;99.90
47600;DHT22;33323;52.124;6.018;2023-11-22T14:38:18;5.30;99.90
47600;DHT22;33323;52.124;6.018;2023-11-22T14:40:48;5.30;99.90
47600;DHT22;33323;52.124;6.018;2023-11-22T14:43:15;5.30;99.90
47600;DHT22;33323;52.124;6.018;2023-11-22T14:45:42;5.20;99.90
47600;DHT22;33323;52.124;6.018;2023-11-22T14:48:09;5.30;99.90
47600;DHT22;33323;52.124;6.018;2023-11-22T14:50:37;5.30;99.90
47600;DHT22;33323;52.124;6.018;2023-11-22T14:53:04;5.20;99.90
47600;DHT22;33323;52.124;6.018;2023-11-22T14:55:32;5.30;99.90
47600;DHT22;33323;52.124;6.018;2023-11-22T14:58:04;5.20;99.90
47600;DHT22;33323;52.124;6.018;2023-11-22T15:00:33;5.20;99.90
47600;DHT22;33323;52.124;6.018;2023-11-22T15:03:00;5.30;99.90
47600;DHT22;33323;52.124;6.018;2023-11-22T15:05:29;5.30;99.90
47600;DHT22;33323;52.124;6.018;2023-11-22T15:07:56;5.20;99.90
47600;DHT22;33323;52.124;6.018;2023-11-22T15:10:24;5.20;99.90
47600;DHT22;33323;52.124;6.018;2023-11-22T15:12:53;5.20;99.90
47600;DHT22;33323;52.124;6.018;2023-11-22T15:15:22;5.20;99.90
47600;DHT22;33323;52.124;6.018;2023-11-22T15:17:52;5.20;99.90
47600;DHT22;33323;52.124;6.018;2023-11-22T15:20:21;5.20;99.90
47600;DHT22;33323;52.124;6.018;2023-11-22T15:22:48;5.20;99.90
47600;DHT22;33323;52.124;6.018;2023-11-22T15:25:17;5.20;99.90
47600;DHT22;33323;52.124;6.018;2023-11-22T15:27:44;5.20;99.90
47600;DHT22;33323;52.124;6.018;2023-11-22T15:30:12;5.20;99.90
47600;DHT22;33323;52.124;6.018;2023-11-22T15:32:39;5.20;99.90
47600;DHT22;33323;52.124;6.018;2023-11-22T15:35:07;5.20;99.90
47600;DHT22;33323;52.124;6.018;2023-11-22T15:37:36;5.20;99.90
47600;DHT22;33323;52.124;6.018;2023-11-22T15:40:04;5.20;99.90
47600;DHT22;33323;52.124;6.018;2023-11-22T15:42:34;5.20;99.90
47600;DHT22;33323;52.124;6.018;2023-11-22T15:45:02;5.20;99.90
47600;DHT22;33323;52.124;6.018;2023-11-22T15:47:30;5.20;99.90
47600;DHT22;33323;52.124;6.018;2023-11-22T15:49:57;5.10;99.90
47600;DHT22;33323;52.124;6.018;2023-11-22T15:52:25;5.20;99.90
47600;DHT22;33323;52.124;6.018;2023-11-22T15:54:53;5.20;99.90
47600;DHT22;33323;52.124;6.018;2023-11-22T15:57:20;5.20;99.90
47600;DHT22;33323;52.124;6.018;2023-11-22T15:59:48;5.10;99.90
47600;DHT22;33323;52.124;6.018;2023-11-22T16:02:16;5.20;99.90
47600;DHT22;33323;52.124;6.018;2023-11-22T16:04:44;5.10;99.90